עמוד ראשי
METAR-TAF:

METAR-TAF

שדות תעופה :

Sandspit, קולומביה הבריטית, קנדה

קו רוחב: 53-15N, קו אורך: 131-49W, גובה: 6מטר

תצפית מזג אוויר נוכחית

הדו"ח נערך לפני 1 שעות ו 12דקות, בשעה 08:00 UTC
רוח 4קשר מכיוון דרום
טמפרטורת 6 צלסיוס
לחות 87%
לחץ 1011 hPa
ראות: 14.5קילומטר
עננים בינוניים בגובה 9100רגל
עננים בינוניים בגובה 11000רגל

METAR: CYZP 270800Z AUTO 19004KT 9SM BKN091 BKN110 06/04 A2984 RMK SLP108

זמן: 02:12 (09:12 UTC)

תחזית

הדו"ח נערך לפני 2 שעות ו 32דקות, בשעה 06:40 UTC
תחזית בתוקף מ 27 ב 07 UTC עד 27 ב 19 UTC
רוח 7קשר מכיוון דרום/דרום-מערב
ראות: 10קילומטר
מעט עננים בגובה 3000רגל
עננים בינוניים בגובה 6000רגל
זמנית מ -
27 ב 07 UTC עד 27 ב 19 UTC
ראות: 8.0קילומטר
עננים בינוניים בגובה 3000רגל
ממטרי גשם קלים, אד
יעשה מ
27 ב 10 UTC עד 27 ב 12 UTC
רוח 10קשר מכיוון דרום

TAF: CYZP 270640Z 2707/2719 21007KT P6SM FEW030 BKN060 TEMPO 2707/2719 5SM -SHRA BR BKN030 BECMG 2710/2712 18010KT RMK FCST BASED ON AUTO OBS. NXT FCST BY 271300Z

תצפיות ותחזיות מזג אוויר לגבי יותר מ- 4,000 שדות תעופה ברחבי העולם. דוחות METAR ו- TAF.

התחנות הזמינות מסומנות בנקודות צהובות ואדומות על גבי המפה.

העבר את העכבר לנקודה הצבעונית על מנת לראות את שם התחנה.

לאחר מכן, לחץ כדי לראות את תוכן ואת תחזיות מזג האוויר.

כדי לשנות את המפה: לחץ על הכפתורים הירוקים עם הפלוס השחור כדי להתקרב; על הכפתור הירוק עם המקף כדי להתרחק; או בחיצים הירוקים למפות סמוכות.


METAR-TAF: